Time;durP1;ratioP1;P1;durP2;ratioP2;P2;SDS_P1;SDS_P2;PMS_P1;PMS_P2;Temp;Humidity;BMP_temperature;BMP_pressure;BME280_temperature;BME280_humidity;BME280_pressure;Samples;Min_cycle;Max_cycle;Signal;HPM_P1;HPM_P2
2021/04/28 00:00:13;;;;;;;6.35;4.60;;;;;;;2.69;51.66;99225.78;1719327;83;21230;-59
2021/04/28 00:02:40;;;;;;;4.97;4.25;;;;;;;2.66;51.75;99227.34;1717127;83;21643;-60
2021/04/28 00:05:10;;;;;;;5.60;4.70;;;;;;;2.64;51.80;99220.55;1718843;83;21200;-60
2021/04/28 00:07:37;;;;;;;6.80;5.00;;;;;;;2.64;51.85;99224.48;1718725;83;22240;-61
2021/04/28 00:10:28;;;;;;;6.83;5.50;;;;;;;2.63;51.95;99222.84;1718104;82;21514;-60
2021/04/28 00:12:56;;;;;;;10.85;6.62;;;;;;;2.61;52.12;99225.57;1714913;83;21072;-60
2021/04/28 00:15:27;;;;;;;6.67;5.60;;;;;;;2.57;52.37;99224.17;1718304;82;21514;-63
2021/04/28 00:17:55;;;;;;;7.28;5.00;;;;;;;2.52;52.50;99225.51;1724978;82;21514;-64
2021/04/28 00:20:23;;;;;;;8.28;6.25;;;;;;;2.48;52.59;99220.97;1703268;82;21404;-60
2021/04/28 00:22:51;;;;;;;11.88;7.78;;;;;;;2.45;52.82;99222.06;1724773;83;21625;-60
2021/04/28 00:25:21;;;;;;;9.83;7.12;;;;;;;2.43;53.04;99222.67;1724787;83;21661;-63
2021/04/28 00:27:49;;;;;;;10.45;6.17;;;;;;;2.42;53.19;99220.99;1724865;83;21162;-61
2021/04/28 00:30:18;;;;;;;8.90;6.28;;;;;;;2.43;53.29;99220.05;1703478;83;21104;-60
2021/04/28 00:32:45;;;;;;;9.25;6.33;;;;;;;2.44;53.32;99216.95;1724941;83;21380;-63
2021/04/28 00:35:14;;;;;;;9.75;6.22;;;;;;;2.44;53.31;99220.41;1724744;83;21124;-62
2021/04/28 00:37:42;;;;;;;9.60;6.28;;;;;;;2.45;53.33;99218.13;1724879;83;21545;-60
2021/04/28 00:40:14;;;;;;;7.15;5.42;;;;;;;2.44;53.40;99219.58;1702015;83;21143;-60
2021/04/28 00:42:42;;;;;;;9.30;6.40;;;;;;;2.43;53.50;99221.36;1701034;83;21176;-60
2021/04/28 00:45:12;;;;;;;7.50;5.67;;;;;;;2.44;53.58;99220.89;1722215;83;22287;-60
2021/04/28 00:47:40;;;;;;;6.00;4.87;;;;;;;2.42;53.57;99219.67;1724696;83;21203;-62
2021/04/28 00:50:19;;;;;;;8.03;5.42;;;;;;;2.41;53.54;99218.03;1701702;83;21230;-60
2021/04/28 00:52:47;;;;;;;7.72;4.95;;;;;;;2.41;53.57;99215.41;1690737;83;21116;-60
2021/04/28 00:55:16;;;;;;;6.42;4.75;;;;;;;2.41;53.59;99221.97;1724824;82;21168;-61
2021/04/28 00:57:44;;;;;;;7.42;5.47;;;;;;;2.40;53.58;99220.29;1703379;83;21452;-60
2021/04/28 01:00:15;;;;;;;8.15;5.75;;;;;;;2.39;53.67;99218.64;1715244;82;21165;-58
2021/04/28 01:02:42;;;;;;;10.25;5.87;;;;;;;2.38;53.78;99216.13;1726953;83;21143;-60
2021/04/28 01:05:11;;;;;;;7.92;5.78;;;;;;;2.35;53.84;99219.00;1726927;82;21135;-61
2021/04/28 01:07:40;;;;;;;7.80;5.67;;;;;;;2.33;53.89;99213.88;1726862;82;21052;-60
2021/04/28 01:10:13;;;;;;;12.63;6.00;;;;;;;2.32;53.89;99219.27;1715104;82;22125;-64
2021/04/28 01:12:41;;;;;;;7.65;5.75;;;;;;;2.30;53.97;99218.06;1722429;82;21175;-61
2021/04/28 01:15:12;;;;;;;9.83;6.62;;;;;;;2.27;54.19;99224.88;1735799;82;21166;-67
2021/04/28 01:17:40;;;;;;;8.55;6.20;;;;;;;2.23;54.29;99223.94;1737975;82;21056;-64
2021/04/28 01:20:10;;;;;;;7.40;5.83;;;;;;;2.18;54.44;99215.13;1727202;82;22485;-62
2021/04/28 01:22:39;;;;;;;7.83;5.33;;;;;;;2.13;54.60;99217.30;1727566;83;21370;-62
2021/04/28 01:25:10;;;;;;;8.60;5.15;;;;;;;2.10;54.66;99214.08;1727501;83;21660;-62
2021/04/28 01:27:39;;;;;;;7.42;5.50;;;;;;;2.08;54.66;99209.44;1727532;83;21087;-62
2021/04/28 01:30:10;;;;;;;8.23;5.12;;;;;;;2.07;54.65;99208.59;1720066;83;21039;-62
2021/04/28 01:32:40;;;;;;;9.28;5.03;;;;;;;2.08;54.69;99205.03;1727688;83;21088;-62
2021/04/28 01:35:09;;;;;;;7.45;4.95;;;;;;;2.06;54.72;99204.80;1727623;83;21083;-62
2021/04/28 01:37:38;;;;;;;6.72;4.83;;;;;;;2.05;54.72;99201.80;1727569;83;21064;-65
2021/04/28 01:40:07;;;;;;;6.22;5.03;;;;;;;2.04;54.72;99202.28;1716286;83;20960;-62
2021/04/28 01:42:35;;;;;;;6.42;4.33;;;;;;;2.05;54.68;99199.18;1694064;83;21087;-61
2021/04/28 01:45:04;;;;;;;9.45;4.95;;;;;;;2.06;54.66;99203.48;1727438;83;21186;-62
2021/04/28 01:47:32;;;;;;;6.85;4.78;;;;;;;2.06;54.64;99197.73;1727611;83;21359;-60
2021/04/28 01:50:03;;;;;;;6.00;4.70;;;;;;;2.05;54.71;99196.55;1684987;83;21167;-59
2021/04/28 01:52:31;;;;;;;6.53;4.62;;;;;;;2.03;54.85;99195.38;1679715;83;20961;-61
2021/04/28 01:54:59;;;;;;;6.15;4.92;;;;;;;2.00;54.94;99196.09;1727466;83;21170;-60
2021/04/28 01:57:27;;;;;;;7.22;4.95;;;;;;;1.98;55.04;99198.02;1726969;83;20957;-60
2021/04/28 01:59:59;;;;;;;6.47;4.22;;;;;;;1.95;55.08;99195.16;1708097;83;21186;-62
2021/04/28 02:02:45;;;;;;;6.37;5.00;;;;;;;1.91;55.15;99193.72;1698472;83;21195;-61
2021/04/28 02:05:15;;;;;;;6.50;4.65;;;;;;;1.89;55.21;99195.64;1687726;83;21166;-62
2021/04/28 02:07:42;;;;;;;6.37;4.72;;;;;;;1.88;55.28;99200.52;1705695;83;21194;-64
2021/04/28 02:10:12;;;;;;;5.60;4.28;;;;;;;1.85;55.34;99196.86;1692001;84;21143;-63
2021/04/28 02:12:40;;;;;;;5.78;4.42;;;;;;;1.82;55.40;99199.25;1710689;83;21558;-60
2021/04/28 02:15:10;;;;;;;8.08;4.97;;;;;;;1.80;55.40;99200.30;1726934;83;21188;-59
2021/04/28 02:17:39;;;;;;;6.42;4.83;;;;;;;1.79;55.43;99195.55;1727992;81;21575;-63
2021/04/28 02:20:12;;;;;;;7.20;5.30;;;;;;;1.81;55.38;99199.35;1696863;83;21069;-62
2021/04/28 02:22:42;;;;;;;6.92;5.03;;;;;;;1.83;55.32;99198.27;1708617;83;21567;-60
2021/04/28 02:25:21;;;;;;;8.23;4.60;;;;;;;1.88;55.32;99201.83;1809220;78;29342;-61
2021/04/28 02:27:54;;;;;;;10.10;4.65;;;;;;;1.83;55.33;99202.20;1781206;79;21009;-60
2021/04/28 02:30:26;;;;;;;5.78;4.40;;;;;;;1.83;55.35;99199.58;1807400;79;21151;-60
2021/04/28 02:32:54;;;;;;;5.45;4.60;;;;;;;1.82;55.35;99209.73;1784701;79;21054;-60
2021/04/28 02:35:41;;;;;;;5.87;4.12;;;;;;;1.80;55.43;99199.82;1792104;79;21627;-62
2021/04/28 02:38:27;;;;;;;5.25;3.87;;;;;;;1.78;55.48;99199.59;1814270;79;20996;-60
2021/04/28 02:41:05;;;;;;;6.25;3.70;;;;;;;1.76;55.55;99205.44;1749564;81;21082;-62
2021/04/28 02:43:37;;;;;;;5.62;3.87;;;;;;;1.73;55.63;99201.27;1757591;79;21211;-61
2021/04/28 02:46:10;;;;;;;7.50;3.85;;;;;;;1.71;55.67;99205.81;1733270;80;21658;-65
2021/04/28 02:48:43;;;;;;;5.55;3.98;;;;;;;1.71;55.69;99207.59;1758870;80;20971;-61
2021/04/28 02:51:29;;;;;;;4.45;3.30;;;;;;;1.69;55.80;99205.11;1745895;81;20961;-65
2021/04/28 02:53:58;;;;;;;4.95;3.47;;;;;;;1.68;55.84;99213.92;1766752;80;21063;-61
2021/04/28 02:56:28;;;;;;;4.80;3.42;;;;;;;1.68;55.90;99211.77;1749840;80;21369;-60
2021/04/28 02:58:56;;;;;;;4.42;3.55;;;;;;;1.67;55.96;99213.55;1761125;80;21156;-61
2021/04/28 03:01:24;;;;;;;4.20;3.15;;;;;;;1.65;55.99;99216.77;1779671;80;21061;-62
2021/04/28 03:03:53;;;;;;;3.95;2.85;;;;;;;1.71;55.96;99215.47;1749895;80;21046;-60
2021/04/28 03:06:22;;;;;;;4.10;2.90;;;;;;;1.75;55.87;99219.50;1751064;80;21056;-63
2021/04/28 03:08:59;;;;;;;4.67;2.90;;;;;;;1.78;55.81;99218.78;1771389;80;22331;-61
2021/04/28 03:11:27;;;;;;;5.90;3.17;;;;;;;1.86;55.69;99215.55;1720775;82;21132;-60
2021/04/28 03:13:56;;;;;;;5.00;3.00;;;;;;;1.96;55.53;99220.42;1776125;80;21012;-61
2021/04/28 03:16:24;;;;;;;4.40;3.22;;;;;;;2.08;55.30;99223.87;1748385;79;21154;-60
2021/04/28 03:18:52;;;;;;;4.50;3.58;;;;;;;2.23;54.96;99223.47;1772526;78;21154;-61
2021/04/28 03:21:20;;;;;;;4.75;3.17;;;;;;;2.38;54.61;99227.47;1757165;80;21379;-64
2021/04/28 03:23:48;;;;;;;4.35;2.87;;;;;;;2.50;54.33;99223.83;1740945;80;21147;-61
2021/04/28 03:26:16;;;;;;;3.90;3.30;;;;;;;2.60;54.09;99222.61;1782751;79;20969;-61
2021/04/28 03:28:44;;;;;;;5.65;3.20;;;;;;;2.70;53.92;99224.83;1770518;79;21119;-60
2021/04/28 03:31:12;;;;;;;4.00;3.22;;;;;;;2.83;53.58;99224.64;1763856;79;21143;-62
2021/04/28 03:33:39;;;;;;;6.47;3.75;;;;;;;2.97;53.30;99225.14;1777097;79;21385;-61
2021/04/28 03:36:09;;;;;;;4.17;3.27;;;;;;;3.15;52.94;99225.89;1763395;79;21194;-63
2021/04/28 03:38:50;;;;;;;4.67;3.12;;;;;;;3.34;52.54;99229.44;1800760;79;21000;-60
2021/04/28 03:41:18;;;;;;;4.10;3.37;;;;;;;3.56;52.11;99225.34;1796666;79;20973;-60
2021/04/28 03:43:46;;;;;;;5.80;3.60;;;;;;;3.77;51.64;99232.33;1804722;79;21114;-61
2021/04/28 03:46:16;;;;;;;5.92;4.03;;;;;;;3.98;51.21;99235.72;1803579;79;21412;-60
2021/04/28 03:48:49;;;;;;;7.17;5.20;;;;;;;4.18;50.73;99231.68;1777767;79;21571;-63
2021/04/28 03:51:20;;;;;;;10.70;7.08;;;;;;;4.41;50.24;99233.57;1776492;79;21068;-61
2021/04/28 03:53:58;;;;;;;9.45;7.50;;;;;;;4.67;49.68;99236.01;1795273;77;23156;-61
2021/04/28 03:56:26;;;;;;;8.68;6.92;;;;;;;4.82;49.32;99237.25;1702946;82;20910;-61
2021/04/28 03:58:55;;;;;;;9.68;5.53;;;;;;;5.00;49.00;99240.84;1700690;83;21378;-61
2021/04/28 04:01:23;;;;;;;6.25;5.08;;;;;;;5.20;48.52;99239.50;1710876;82;21041;-63
2021/04/28 04:03:50;;;;;;;6.30;4.80;;;;;;;5.36;48.25;99240.58;1729158;82;21219;-63
2021/04/28 04:06:37;;;;;;;6.40;4.55;;;;;;;5.51;47.86;99247.05;1746959;80;21071;-64
2021/04/28 04:09:25;;;;;;;7.67;4.00;;;;;;;5.76;47.57;99242.91;1829265;76;22625;-65
2021/04/28 04:11:55;;;;;;;5.40;4.10;;;;;;;5.90;47.30;99242.96;1769069;79;21589;-64
2021/04/28 04:14:25;;;;;;;5.33;3.47;;;;;;;6.09;47.10;99237.11;1776538;79;21136;-63
2021/04/28 04:16:54;;;;;;;6.03;4.00;;;;;;;6.32;46.66;99241.96;1789915;79;21557;-62
2021/04/28 04:19:22;;;;;;;5.17;3.55;;;;;;;6.51;46.42;99242.67;1740192;79;21092;-64
2021/04/28 04:21:54;;;;;;;6.47;4.58;;;;;;;6.68;46.23;99246.28;1715572;81;21009;-67
2021/04/28 04:24:38;;;;;;;4.30;3.83;;;;;;;6.95;45.88;99239.59;1821725;78;22783;-63
2021/04/28 04:27:09;;;;;;;5.15;4.03;;;;;;;7.14;45.59;99239.43;1784566;79;21162;-65
2021/04/28 04:30:02;;;;;;;5.08;4.03;;;;;;;7.50;45.00;99236.67;1749017;79;22374;-61
2021/04/28 04:32:30;;;;;;;6.35;3.90;;;;;;;7.67;44.79;99241.06;1733265;82;21112;-62
2021/04/28 04:35:11;;;;;;;7.37;5.42;;;;;;;7.92;44.58;99242.86;1715324;82;21222;-64
2021/04/28 04:37:57;;;;;;;5.95;4.62;;;;;;;8.18;43.80;99240.97;1711995;82;21009;-66
2021/04/28 04:40:32;;;;;;;8.03;5.28;;;;;;;8.39;43.01;99246.70;1708467;82;21195;-62
2021/04/28 04:43:04;;;;;;;10.90;5.75;;;;;;;8.51;42.70;99241.91;1708509;82;20946;-61
2021/04/28 04:45:34;;;;;;;6.25;4.95;;;;;;;8.61;42.71;99248.72;1721501;82;20944;-61
2021/04/28 04:48:05;;;;;;;5.85;4.62;;;;;;;8.81;42.64;99244.45;1727366;82;21386;-61
2021/04/28 04:50:34;;;;;;;3.60;3.27;;;;;;;9.01;42.25;99245.77;1714708;82;21061;-59
2021/04/28 04:53:02;;;;;;;4.12;3.55;;;;;;;9.15;42.10;99249.91;1675136;85;21033;-64
2021/04/28 04:55:31;;;;;;;4.20;2.65;;;;;;;9.27;41.69;99251.73;1695140;84;21018;-59
2021/04/28 04:58:00;;;;;;;4.15;3.40;;;;;;;9.45;40.93;99247.55;1687411;84;21274;-60
2021/04/28 05:00:28;;;;;;;4.05;2.70;;;;;;;9.63;40.76;99247.69;1676345;84;21278;-58
2021/04/28 05:02:57;;;;;;;2.60;2.40;;;;;;;9.87;40.46;99246.30;1675050;85;20977;-61
2021/04/28 05:05:24;;;;;;;4.60;2.72;;;;;;;10.12;40.22;99243.06;1691942;84;20904;-60
2021/04/28 05:07:53;;;;;;;3.80;2.65;;;;;;;10.36;39.56;99242.95;1692032;84;20979;-65
2021/04/28 05:10:21;;;;;;;3.22;2.30;;;;;;;10.64;39.29;99243.27;1686762;84;21184;-61
2021/04/28 05:12:49;;;;;;;3.35;2.30;;;;;;;10.87;37.85;99255.28;1691400;84;21392;-60
2021/04/28 05:15:17;;;;;;;4.55;2.58;;;;;;;10.98;37.62;99249.52;1693962;84;20981;-61
2021/04/28 05:17:46;;;;;;;6.20;5.70;;;;;;;11.18;37.08;99245.87;1675168;83;21139;-61
2021/04/28 05:20:15;;;;;;;8.53;3.60;;;;;;;11.38;37.03;99248.34;1693523;84;21237;-59
2021/04/28 05:22:43;;;;;;;2.83;2.30;;;;;;;11.58;37.09;99248.98;1695984;84;21123;-59
2021/04/28 05:25:27;;;;;;;3.12;1.75;;;;;;;11.78;36.27;99247.15;1692233;84;21157;-60
2021/04/28 05:27:55;;;;;;;2.17;1.98;;;;;;;11.82;35.66;99249.75;1697188;83;21183;-60
2021/04/28 05:30:25;;;;;;;4.05;1.92;;;;;;;11.97;35.56;99243.41;1704021;83;21569;-60
2021/04/28 05:32:54;;;;;;;2.22;1.90;;;;;;;12.22;35.20;99250.62;1718280;81;21002;-60
2021/04/28 05:35:22;;;;;;;3.55;1.90;;;;;;;12.33;34.63;99244.81;1725989;82;21144;-61
2021/04/28 05:37:50;;;;;;;2.30;2.10;;;;;;;12.33;34.08;99260.82;1724169;82;21329;-60
2021/04/28 05:40:17;;;;;;;2.27;2.00;;;;;;;12.21;33.65;99268.95;1717960;82;21140;-59
2021/04/28 05:42:45;;;;;;;3.33;1.90;;;;;;;12.03;33.36;99249.84;1713323;82;21616;-60
2021/04/28 05:45:14;;;;;;;3.60;2.02;;;;;;;11.84;33.74;99254.39;1711299;82;21158;-61
2021/04/28 05:47:43;;;;;;;3.70;2.00;;;;;;;11.69;33.69;99266.38;1714135;82;21174;-62
2021/04/28 05:50:14;;;;;;;2.83;1.67;;;;;;;11.52;34.63;99264.34;1726026;82;21362;-60
2021/04/28 05:52:41;;;;;;;4.47;2.22;;;;;;;11.54;34.74;99258.35;1708870;82;21202;-59
2021/04/28 05:55:10;;;;;;;2.60;1.82;;;;;;;11.43;35.21;99273.94;1709046;82;21015;-60
2021/04/28 05:57:38;;;;;;;2.58;2.12;;;;;;;11.28;35.36;99266.42;1709078;82;21135;-60
2021/04/28 06:00:12;;;;;;;2.33;1.80;;;;;;;11.33;35.33;99265.38;1709119;82;21082;-58
2021/04/28 06:02:42;;;;;;;2.70;2.10;;;;;;;11.53;34.86;99267.34;1709013;82;21199;-59
2021/04/28 06:05:12;;;;;;;2.10;1.90;;;;;;;11.72;34.81;99270.86;1708989;82;21162;-63
2021/04/28 06:07:40;;;;;;;2.98;2.55;;;;;;;11.86;34.32;99269.22;1709098;82;21615;-63
2021/04/28 06:10:13;;;;;;;3.00;2.25;;;;;;;11.94;34.39;99262.97;1709058;82;21194;-59
2021/04/28 06:12:43;;;;;;;3.85;2.12;;;;;;;12.10;34.44;99257.42;1709144;82;21059;-63
2021/04/28 06:15:14;;;;;;;2.87;2.27;;;;;;;12.25;34.43;99263.05;1730361;82;21295;-61
2021/04/28 06:17:41;;;;;;;2.83;2.50;;;;;;;12.39;34.12;99266.22;1726274;82;21630;-60
2021/04/28 06:20:13;;;;;;;2.22;2.02;;;;;;;12.53;33.94;99264.54;1713597;82;21691;-61
2021/04/28 06:22:41;;;;;;;2.67;2.00;;;;;;;12.69;33.74;99260.81;1709959;82;21691;-60
2021/04/28 06:25:11;;;;;;;2.50;2.30;;;;;;;12.84;33.22;99266.92;1710833;82;21008;-60
2021/04/28 06:27:38;;;;;;;3.25;2.50;;;;;;;12.99;32.68;99258.34;1723274;82;22317;-60
2021/04/28 06:30:07;;;;;;;4.15;2.70;;;;;;;13.12;32.68;99254.50;1714101;82;21127;-60
2021/04/28 06:32:35;;;;;;;3.08;2.70;;;;;;;13.32;32.38;99268.04;1691498;83;21121;-61
2021/04/28 06:35:05;;;;;;;3.10;2.80;;;;;;;13.36;31.39;99263.45;1716013;82;21020;-60
2021/04/28 06:37:32;;;;;;;3.45;2.87;;;;;;;13.38;31.30;99264.08;1711629;81;21235;-60
2021/04/28 06:40:00;;;;;;;3.87;3.08;;;;;;;13.43;31.04;99262.98;1696425;82;21360;-60
2021/04/28 06:42:28;;;;;;;4.55;3.25;;;;;;;13.53;30.74;99262.67;1701356;82;20936;-61
2021/04/28 06:44:58;;;;;;;3.62;3.10;;;;;;;13.70;30.91;99260.50;1690924;82;21093;-61
2021/04/28 06:47:25;;;;;;;6.65;2.72;;;;;;;13.98;30.88;99259.95;1701011;82;21176;-62
2021/04/28 06:49:54;;;;;;;4.00;3.12;;;;;;;14.34;30.65;99260.58;1714645;82;21003;-61
2021/04/28 06:52:22;;;;;;;8.90;3.85;;;;;;;14.68;30.07;99253.81;1707731;82;21373;-62
2021/04/28 06:54:50;;;;;;;3.65;3.05;;;;;;;14.92;29.07;99248.92;1708142;82;21027;-60
2021/04/28 06:57:17;;;;;;;6.90;3.90;;;;;;;14.97;28.69;99252.64;1704321;82;21001;-60
2021/04/28 06:59:47;;;;;;;3.90;3.50;;;;;;;15.09;28.77;99259.06;1691035;82;21108;-59
2021/04/28 07:02:15;;;;;;;5.53;4.03;;;;;;;15.13;28.18;99255.44;1690997;82;21615;-60
2021/04/28 07:04:43;;;;;;;4.78;3.33;;;;;;;15.19;27.58;99259.99;1695203;82;21392;-61
2021/04/28 07:07:10;;;;;;;4.50;4.10;;;;;;;15.11;28.09;99256.17;1716659;82;21180;-61
2021/04/28 07:09:38;;;;;;;5.97;4.53;;;;;;;15.18;27.62;99254.31;1721905;82;21607;-60
2021/04/28 07:12:06;;;;;;;9.28;4.62;;;;;;;15.29;27.43;99265.26;1700955;82;20971;-61
2021/04/28 07:14:34;;;;;;;4.08;3.67;;;;;;;15.46;26.43;99258.98;1700909;82;21176;-61
2021/04/28 07:17:01;;;;;;;3.75;3.35;;;;;;;15.48;25.88;99255.61;1690899;82;21436;-60
2021/04/28 07:19:29;;;;;;;3.42;3.12;;;;;;;15.50;25.66;99263.43;1690840;82;21001;-62
2021/04/28 07:21:57;;;;;;;4.10;3.60;;;;;;;15.57;25.72;99257.54;1690939;82;20963;-60
2021/04/28 07:24:25;;;;;;;4.10;3.65;;;;;;;15.55;25.80;99265.80;1705927;82;20936;-60
2021/04/28 07:26:54;;;;;;;4.45;3.72;;;;;;;15.66;25.46;99268.38;1697896;82;21184;-60
2021/04/28 07:29:21;;;;;;;4.35;3.95;;;;;;;15.58;25.42;99257.34;1710128;82;21164;-61
2021/04/28 07:31:50;;;;;;;3.60;3.30;;;;;;;15.47;25.74;99261.98;1720335;82;20987;-61
2021/04/28 07:34:18;;;;;;;4.37;3.05;;;;;;;15.60;25.72;99251.77;1730168;82;20951;-60
2021/04/28 07:36:45;;;;;;;3.45;3.15;;;;;;;15.93;25.42;99254.70;1731522;82;21147;-59
2021/04/28 07:39:15;;;;;;;3.60;3.27;;;;;;;16.17;25.07;99250.52;1719216;82;21145;-61
2021/04/28 07:41:44;;;;;;;3.33;2.92;;;;;;;16.16;24.27;99257.45;1719320;82;21150;-61
2021/04/28 07:44:11;;;;;;;2.83;2.62;;;;;;;16.18;24.05;99256.20;1723218;80;21110;-59
2021/04/28 07:46:39;;;;;;;3.20;2.98;;;;;;;16.32;24.27;99244.91;1719310;82;20947;-60
2021/04/28 07:49:07;;;;;;;6.75;3.40;;;;;;;16.41;23.92;99253.84;1719093;82;21145;-60
2021/04/28 07:51:36;;;;;;;7.05;3.40;;;;;;;16.36;23.84;99248.80;1719289;82;21216;-62
2021/04/28 07:54:05;;;;;;;4.35;2.58;;;;;;;16.49;23.80;99251.42;1727077;82;21224;-61
2021/04/28 07:56:33;;;;;;;3.17;2.87;;;;;;;16.63;23.57;99246.34;1736925;82;21611;-62
2021/04/28 07:59:00;;;;;;;3.27;2.80;;;;;;;16.68;23.20;99251.06;1727167;82;21103;-60
2021/04/28 08:01:28;;;;;;;4.30;2.83;;;;;;;16.68;22.47;99251.06;1731682;82;21122;-61
2021/04/28 08:03:55;;;;;;;3.10;2.80;;;;;;;16.62;22.51;99252.73;1719217;82;21169;-59
2021/04/28 08:06:25;;;;;;;3.92;3.52;;;;;;;16.59;22.15;99243.25;1722135;82;21214;-61
2021/04/28 08:08:53;;;;;;;4.10;3.05;;;;;;;16.65;22.28;99234.34;1736553;82;21564;-63
2021/04/28 08:11:21;;;;;;;3.05;2.80;;;;;;;16.94;22.62;99252.25;1720086;82;21212;-59
2021/04/28 08:13:49;;;;;;;3.65;3.33;;;;;;;17.17;22.71;99244.45;1744926;82;21107;-62
2021/04/28 08:16:16;;;;;;;2.67;2.42;;;;;;;17.40;22.71;99241.98;1725145;82;21133;-66
2021/04/28 08:18:46;;;;;;;3.70;3.20;;;;;;;17.63;22.61;99241.39;1740379;82;21439;-61
2021/04/28 08:21:13;;;;;;;3.00;2.80;;;;;;;17.76;22.20;99248.81;1719170;82;21035;-60
2021/04/28 08:23:42;;;;;;;3.72;3.08;;;;;;;17.56;22.39;99255.42;1731698;82;21015;-60
2021/04/28 08:26:14;;;;;;;2.58;2.20;;;;;;;17.33;22.82;99243.08;1719174;82;21056;-53
2021/04/28 08:28:46;;;;;;;4.05;2.55;;;;;;;17.41;24.16;99249.02;1719516;82;21146;-56
2021/04/28 08:31:15;;;;;;;3.60;2.60;;;;;;;17.74;25.49;99251.43;1692439;82;21370;-60
2021/04/28 08:33:43;;;;;;;3.40;3.10;;;;;;;18.07;24.38;99239.80;1691043;82;21745;-59
2021/04/28 08:36:12;;;;;;;4.10;2.80;;;;;;;18.31;22.54;99232.69;1690921;82;20986;-65
2021/04/28 08:38:40;;;;;;;3.10;2.80;;;;;;;18.40;22.07;99225.44;1691350;82;21113;-65
2021/04/28 08:41:11;;;;;;;3.50;3.08;;;;;;;18.44;21.91;99220.41;1693786;82;21096;-60
2021/04/28 08:43:39;;;;;;;2.90;2.67;;;;;;;18.40;21.59;99213.84;1659998;86;21327;-60
2021/04/28 08:46:09;;;;;;;3.20;2.90;;;;;;;18.40;21.59;99213.84;1713835;82;21895;-59
2021/04/28 08:48:36;;;;;;;5.55;2.98;;;;;;;18.14;21.19;99223.59;1697790;82;21476;-59
2021/04/28 08:51:04;;;;;;;3.30;3.00;;;;;;;17.74;21.41;99229.39;1697493;82;21649;-60
2021/04/28 08:53:33;;;;;;;3.60;3.20;;;;;;;17.27;21.82;99214.69;1670857;85;21245;-59
2021/04/28 08:56:06;;;;;;;3.40;3.10;;;;;;;16.96;22.73;99216.06;1667191;84;21447;-60
2021/04/28 08:58:35;;;;;;;2.72;2.52;;;;;;;16.88;22.85;99210.95;1677610;84;21199;-59
2021/04/28 09:01:04;;;;;;;3.47;2.65;;;;;;;17.06;22.76;99214.23;1715974;82;21150;-61
2021/04/28 09:03:39;;;;;;;3.22;2.42;;;;;;;17.19;21.98;99206.89;1725119;82;21594;-61
2021/04/28 09:06:34;;;;;;;2.92;2.62;;;;;;;17.01;21.91;99214.06;1705114;82;21156;-60
2021/04/28 09:09:14;;;;;;;3.42;2.92;;;;;;;16.80;22.21;99217.92;1698042;82;21389;-60
2021/04/28 09:11:50;;;;;;;2.58;2.37;;;;;;;16.54;22.15;99210.84;1703136;82;21133;-60
2021/04/28 09:14:22;;;;;;;3.20;2.62;;;;;;;16.47;22.10;99210.55;1699270;82;21045;-60
2021/04/28 09:17:04;;;;;;;3.30;3.00;;;;;;;16.39;22.25;99210.80;1692552;82;21503;-61
2021/04/28 09:20:17;;;;;;;2.90;2.60;;;;;;;16.25;22.49;99218.59;1714489;82;21493;-59
2021/04/28 09:23:20;;;;;;;4.03;2.70;;;;;;;16.06;22.98;99210.40;1735272;82;21349;-60
2021/04/28 09:26:16;;;;;;;3.42;3.12;;;;;;;16.21;23.32;99214.69;1824656;78;22737;-60
2021/04/28 09:29:01;;;;;;;3.75;2.83;;;;;;;16.08;23.37;99207.52;1806882;79;21451;-58
2021/04/28 09:31:30;;;;;;;3.33;3.00;;;;;;;15.98;23.40;99191.05;1784584;77;21457;-59
2021/04/28 09:34:00;;;;;;;3.40;3.10;;;;;;;15.99;24.00;99184.12;1784490;79;21048;-60
2021/04/28 09:36:37;;;;;;;3.50;3.15;;;;;;;16.25;23.99;99189.06;1791845;79;21113;-59
2021/04/28 09:39:13;;;;;;;4.08;3.33;;;;;;;16.35;23.73;99187.56;1721037;81;20937;-63
2021/04/28 09:41:53;;;;;;;4.47;3.52;;;;;;;16.43;23.72;99179.78;1767194;80;21222;-61
2021/04/28 09:44:30;;;;;;;3.40;3.10;;;;;;;16.56;23.57;99185.94;1775789;80;21353;-59
2021/04/28 09:47:06;;;;;;;3.77;3.42;;;;;;;16.59;23.81;99177.97;1759878;80;21000;-60
2021/04/28 09:49:59;;;;;;;3.60;3.30;;;;;;;16.59;23.77;99169.91;1752405;80;21547;-60
2021/04/28 09:52:36;;;;;;;3.40;3.10;;;;;;;16.63;23.81;99168.46;1749824;80;21152;-61
2021/04/28 09:55:13;;;;;;;3.42;2.75;;;;;;;16.72;23.63;99172.52;1756873;79;20916;-60
2021/04/28 09:57:47;;;;;;;2.98;2.40;;;;;;;16.92;23.42;99174.53;1747931;79;21358;-60
2021/04/28 10:00:22;;;;;;;3.00;2.70;;;;;;;16.95;22.98;99171.93;1750271;79;21019;-59
2021/04/28 10:02:58;;;;;;;3.15;2.77;;;;;;;17.00;22.53;99186.36;1755502;80;21046;-60
2021/04/28 10:05:35;;;;;;;3.95;2.70;;;;;;;16.99;22.44;99165.09;1749869;80;21633;-60
2021/04/28 10:08:21;;;;;;;2.70;2.50;;;;;;;17.07;22.34;99177.75;1770708;80;21665;-62
2021/04/28 10:10:52;;;;;;;3.10;2.83;;;;;;;17.20;22.18;99164.72;1739230;79;22355;-60
2021/04/28 10:13:20;;;;;;;2.85;2.65;;;;;;;17.31;22.32;99151.08;1745051;79;21841;-60
2021/04/28 10:15:47;;;;;;;2.98;2.67;;;;;;;17.18;22.17;99156.05;1766510;80;21502;-61
2021/04/28 10:18:16;;;;;;;9.40;3.05;;;;;;;16.97;22.61;99169.33;1751994;80;21145;-60
2021/04/28 10:20:45;;;;;;;3.98;3.08;;;;;;;16.92;22.56;99170.50;1776634;80;21170;-61
2021/04/28 10:23:19;;;;;;;3.27;2.98;;;;;;;17.10;22.29;99150.41;1770629;79;21410;-60
2021/04/28 10:25:48;;;;;;;3.72;2.58;;;;;;;17.19;21.83;99161.20;1760904;80;21040;-61
2021/04/28 10:28:17;;;;;;;3.77;2.92;;;;;;;17.08;22.37;99148.47;1759620;81;21042;-62
2021/04/28 10:30:48;;;;;;;3.30;3.00;;;;;;;17.25;22.11;99163.02;1728795;79;20936;-62
2021/04/28 10:33:21;;;;;;;3.17;2.85;;;;;;;17.03;22.36;99193.16;1728831;79;21054;-61
2021/04/28 10:35:50;;;;;;;3.72;3.40;;;;;;;16.41;22.94;99149.65;1738133;79;21202;-62
2021/04/28 10:38:25;;;;;;;4.17;3.00;;;;;;;16.14;23.70;99148.16;1759039;81;21043;-61
2021/04/28 10:40:53;;;;;;;2.67;2.47;;;;;;;16.16;23.72;99135.34;1731460;79;21015;-61
2021/04/28 10:43:34;;;;;;;2.45;2.25;;;;;;;16.25;23.71;99140.23;1754821;80;21039;-60
2021/04/28 10:46:21;;;;;;;3.55;2.42;;;;;;;16.30;23.02;99151.16;1796595;79;21102;-61
2021/04/28 10:48:52;;;;;;;6.05;2.45;;;;;;;16.25;23.05;99132.19;1769565;79;21362;-59
2021/04/28 10:51:37;;;;;;;2.95;2.50;;;;;;;16.40;22.86;99133.26;1779555;78;21100;-60
2021/04/28 10:54:22;;;;;;;2.83;2.30;;;;;;;16.54;22.65;99143.72;1778350;79;20903;-61
2021/04/28 10:57:05;;;;;;;3.05;2.40;;;;;;;16.57;22.72;99125.84;1797983;79;21150;-61
2021/04/28 10:59:41;;;;;;;3.35;2.60;;;;;;;16.59;22.91;99122.92;1771828;79;21519;-61
2021/04/28 11:02:14;;;;;;;2.70;2.50;;;;;;;16.60;22.80;99123.23;1780908;79;21404;-61
2021/04/28 11:04:46;;;;;;;5.58;2.37;;;;;;;16.39;22.59;99112.30;1779529;79;21116;-60
2021/04/28 11:07:15;;;;;;;3.08;2.62;;;;;;;16.05;23.08;99118.88;1773130;79;20934;-60
2021/04/28 11:09:43;;;;;;;6.72;2.55;;;;;;;15.80;23.42;99125.98;1799631;79;21010;-60
2021/04/28 11:12:11;;;;;;;4.37;2.60;;;;;;;15.66;23.38;99111.52;1789029;79;21137;-61
2021/04/28 11:14:47;;;;;;;3.05;2.30;;;;;;;15.54;23.11;99133.31;1762129;79;21191;-60
2021/04/28 11:17:22;;;;;;;2.90;2.15;;;;;;;15.35;23.18;99110.84;1729504;82;21129;-60
2021/04/28 11:19:51;;;;;;;3.00;2.58;;;;;;;15.26;23.77;99110.23;1720491;82;21152;-61
2021/04/28 11:22:29;;;;;;;3.72;2.33;;;;;;;15.29;23.26;99107.66;1739099;79;21121;-62
2021/04/28 11:25:17;;;;;;;4.28;2.40;;;;;;;15.12;23.26;99111.81;1744347;79;21544;-61
2021/04/28 11:28:03;;;;;;;2.92;2.40;;;;;;;14.89;23.67;99106.06;1747288;79;21235;-59
2021/04/28 11:30:45;;;;;;;3.05;2.10;;;;;;;14.78;23.90;99104.29;1769053;79;20977;-60
2021/04/28 11:33:31;;;;;;;3.98;1.90;;;;;;;14.84;23.77;99097.29;1762126;79;20940;-60
2021/04/28 11:36:06;;;;;;;3.10;2.08;;;;;;;14.99;23.55;99115.84;1804721;79;20981;-61
2021/04/28 11:38:38;;;;;;;4.22;1.80;;;;;;;14.98;23.10;99115.53;1783917;79;20914;-60
2021/04/28 11:41:16;;;;;;;2.80;2.33;;;;;;;14.76;22.53;99110.38;1783915;79;21353;-60
2021/04/28 11:43:49;;;;;;;3.98;2.42;;;;;;;14.49;23.15;99117.27;1784004;79;20886;-60
2021/04/28 11:46:29;;;;;;;4.53;2.22;;;;;;;14.37;22.94;99102.81;1783845;79;21048;-61
2021/04/28 11:48:59;;;;;;;3.83;2.22;;;;;;;14.32;23.24;99095.41;1740945;81;21180;-61
2021/04/28 11:51:30;;;;;;;3.65;2.00;;;;;;;14.29;23.99;99103.80;1721439;81;21336;-60
2021/04/28 11:54:03;;;;;;;2.47;2.25;;;;;;;14.35;24.08;99095.51;1717878;81;21392;-60
2021/04/28 11:56:38;;;;;;;2.42;2.00;;;;;;;14.41;24.47;99086.17;1738113;81;21641;-64